createdAt,value
2019-04-03T00:03:07.112Z,28.40
2019-04-03T00:05:36.164Z,28.70
2019-04-03T00:13:05.594Z,29.10
2019-04-03T00:15:34.418Z,29.30
2019-04-03T00:18:03.290Z,29.30
2019-04-03T00:23:20.600Z,29.30
2019-04-03T00:28:22.265Z,29.20
2019-04-03T00:30:52.965Z,29.40
2019-04-03T00:33:23.582Z,29.50
2019-04-03T00:40:54.393Z,29.90
2019-04-03T00:43:24.672Z,29.90
2019-04-03T00:45:54.967Z,29.80
2019-04-03T00:48:25.763Z,29.80
2019-04-03T00:50:56.633Z,29.90
2019-04-03T00:55:59.505Z,30.30
2019-04-03T00:58:36.877Z,30.30
2019-04-03T01:01:07.481Z,30.50
2019-04-03T01:06:05.282Z,30.60
2019-04-03T01:08:34.265Z,30.30
2019-04-03T01:13:32.543Z,30.70
2019-04-03T01:18:34.350Z,30.60
2019-04-03T01:21:02.179Z,30.60
2019-04-03T01:23:31.143Z,30.80
2019-04-03T01:26:00.010Z,30.50
2019-04-03T01:28:28.935Z,30.60
2019-04-03T01:30:57.843Z,30.60
2019-04-03T01:33:26.717Z,30.60
2019-04-03T01:35:55.581Z,30.80
2019-04-03T01:38:24.539Z,31.10
2019-04-03T01:40:53.402Z,31.00
2019-04-03T01:43:23.220Z,31.10
2019-04-03T01:45:52.483Z,31.00
2019-04-03T01:50:49.951Z,31.00
2019-04-03T01:53:18.830Z,31.10
2019-04-03T01:55:47.627Z,31.10
2019-04-03T01:58:16.517Z,31.10
2019-04-03T02:03:13.863Z,31.00
2019-04-03T02:05:43.988Z,31.10
2019-04-03T02:08:14.500Z,31.20
2019-04-03T02:10:43.623Z,30.90
2019-04-03T02:13:12.569Z,30.70
2019-04-03T02:18:10.035Z,30.90
2019-04-03T02:20:38.902Z,30.90
2019-04-03T02:23:07.815Z,30.80
2019-04-03T02:25:36.882Z,30.60
2019-04-03T02:28:05.852Z,30.80
2019-04-03T02:30:34.850Z,30.60
2019-04-03T02:33:03.953Z,30.30
2019-04-03T02:35:33.004Z,30.20
2019-04-03T02:38:01.866Z,30.10
2019-04-03T02:43:01.276Z,30.00
2019-04-03T02:45:30.216Z,30.00
2019-04-03T02:47:59.125Z,29.80
2019-04-03T02:50:28.125Z,29.60
2019-04-03T02:52:58.407Z,29.70
2019-04-03T02:55:27.522Z,29.70
2019-04-03T02:57:56.499Z,29.70
2019-04-03T03:00:26.369Z,29.60
2019-04-03T03:02:55.245Z,29.70
2019-04-03T03:05:26.831Z,29.70
2019-04-03T03:07:54.662Z,29.80
2019-04-03T03:12:52.731Z,30.00
2019-04-03T03:15:22.003Z,30.00
2019-04-03T03:22:52.960Z,30.00
2019-04-03T03:25:22.189Z,30.20
2019-04-03T03:32:50.642Z,29.90
2019-04-03T03:35:28.597Z,29.90
2019-04-03T03:37:50.985Z,29.40
2019-04-03T03:42:48.658Z,29.20
2019-04-03T03:45:37.144Z,29.30
2019-04-03T03:48:09.364Z,29.30
2019-04-03T03:50:38.959Z,29.70
2019-04-03T03:53:11.530Z,29.80
2019-04-03T03:55:39.991Z,30.00
2019-04-03T03:58:12.444Z,30.30
2019-04-03T04:03:11.168Z,30.50
2019-04-03T04:08:11.362Z,30.60
2019-04-03T04:13:13.934Z,30.70
2019-04-03T04:18:13.339Z,30.60
2019-04-03T04:23:09.579Z,30.10
2019-04-03T04:28:09.206Z,30.00
2019-04-03T04:33:06.375Z,29.30
2019-04-03T04:38:04.088Z,29.20
2019-04-03T04:40:32.966Z,29.10
2019-04-03T04:43:03.769Z,28.90
2019-04-03T04:45:33.519Z,28.80
2019-04-03T04:48:02.735Z,28.90
2019-04-03T04:55:31.334Z,28.70
2019-04-03T05:03:00.953Z,28.40
2019-04-03T05:05:30.728Z,28.40
2019-04-03T05:10:29.844Z,28.00
2019-04-03T05:12:58.680Z,27.90
2019-04-03T05:17:57.670Z,27.40
2019-04-03T05:20:27.279Z,27.00
2019-04-03T05:22:56.249Z,27.10
2019-04-03T05:27:53.639Z,27.20
2019-04-03T05:30:30.638Z,27.00
2019-04-03T05:35:28.937Z,27.10
2019-04-03T05:37:57.909Z,27.10
2019-04-03T05:40:27.033Z,27.20
2019-04-03T05:42:56.236Z,27.10
2019-04-03T05:45:25.044Z,27.00
2019-04-03T05:50:22.641Z,26.70
2019-04-03T05:55:20.201Z,26.70
2019-04-03T05:57:49.069Z,26.70
2019-04-03T06:00:18.869Z,26.70
2019-04-03T06:10:16.790Z,26.30
2019-04-03T06:12:46.344Z,26.30
2019-04-03T06:17:44.715Z,25.80
2019-04-03T06:25:13.672Z,25.50
2019-04-03T06:32:40.729Z,26.00
2019-04-03T06:35:09.724Z,25.70
2019-04-03T06:37:38.608Z,25.80
2019-04-03T06:40:10.549Z,25.80
2019-04-03T06:42:39.365Z,26.20
2019-04-03T06:45:08.450Z,26.60
2019-04-03T06:52:36.267Z,27.50
2019-04-03T06:55:06.089Z,27.90
2019-04-03T07:00:23.501Z,28.70
2019-04-03T07:02:52.494Z,29.40
2019-04-03T07:07:50.128Z,30.60
2019-04-03T07:10:25.753Z,30.00
2019-04-03T07:12:49.626Z,30.00
2019-04-03T07:15:18.779Z,30.70
2019-04-03T07:17:47.722Z,30.70
2019-04-03T07:25:16.874Z,30.60
2019-04-03T07:27:45.754Z,30.60
2019-04-03T07:32:45.865Z,30.40
2019-04-03T07:37:43.755Z,30.60
2019-04-03T07:40:14.112Z,31.20
2019-04-03T07:42:43.331Z,30.60
2019-04-03T07:45:12.672Z,31.00
2019-04-03T07:50:11.603Z,30.70
2019-04-03T07:52:40.580Z,31.00
2019-04-03T07:55:09.986Z,30.90
2019-04-03T07:57:41.026Z,31.10
2019-04-03T08:00:12.483Z,31.50
2019-04-03T08:05:12.069Z,31.10
2019-04-03T08:10:09.773Z,31.40
2019-04-03T08:12:38.629Z,31.70
2019-04-03T08:15:09.365Z,31.90
2019-04-03T08:17:38.269Z,31.30
2019-04-03T08:20:30.678Z,31.20
2019-04-03T08:22:58.877Z,31.10
2019-04-03T08:25:27.779Z,31.60
2019-04-03T08:30:25.233Z,31.20
2019-04-03T08:35:24.185Z,31.30
2019-04-03T08:37:53.434Z,31.90
2019-04-03T08:40:22.666Z,30.90
2019-04-03T08:42:52.224Z,30.60
2019-04-03T08:47:51.233Z,30.60
2019-04-03T08:50:20.182Z,30.80
2019-04-03T08:52:49.092Z,30.90
2019-04-03T08:55:18.089Z,30.80
2019-04-03T09:00:17.715Z,31.30
2019-04-03T09:02:46.799Z,31.50
2019-04-03T09:07:46.308Z,31.70
2019-04-03T09:10:15.792Z,31.70
2019-04-03T09:12:44.822Z,31.20
2019-04-03T09:15:14.230Z,30.90
2019-04-03T09:17:43.558Z,30.00
2019-04-03T09:20:13.859Z,29.60
2019-04-03T09:22:42.876Z,29.40
2019-04-03T09:25:33.021Z,29.80
2019-04-03T09:33:00.355Z,30.00
2019-04-03T09:35:32.162Z,30.90
2019-04-03T09:38:00.254Z,30.20
2019-04-03T09:42:57.592Z,30.30
2019-04-03T09:45:28.176Z,30.30
2019-04-03T09:47:57.098Z,30.40
2019-04-03T09:50:26.216Z,30.20
2019-04-03T09:52:55.559Z,30.50
2019-04-03T09:55:24.620Z,29.80
2019-04-03T09:57:53.475Z,29.90
2019-04-03T10:06:00.864Z,29.40
2019-04-03T10:10:58.327Z,28.20
2019-04-03T10:15:55.978Z,27.00
2019-04-03T10:18:24.997Z,26.00
2019-04-03T10:23:22.259Z,24.20
2019-04-03T10:25:53.096Z,23.80
2019-04-03T10:28:21.426Z,24.00
2019-04-03T10:30:52.476Z,23.90
2019-04-03T10:33:20.577Z,22.70
2019-04-03T10:35:49.381Z,22.90
2019-04-03T10:40:48.199Z,22.80
2019-04-03T10:43:17.131Z,23.20
2019-04-03T10:45:46.061Z,24.40
2019-04-03T10:48:14.889Z,23.90
2019-04-03T10:50:43.894Z,23.70
2019-04-03T10:55:41.072Z,24.50
2019-04-03T10:58:10.258Z,24.60
2019-04-03T11:00:39.495Z,24.60
2019-04-03T11:03:08.534Z,24.20
2019-04-03T11:05:37.477Z,24.50
2019-04-03T11:10:35.303Z,25.20
2019-04-03T11:13:04.430Z,25.80
2019-04-03T11:18:02.007Z,26.40
2019-04-03T11:20:30.941Z,27.00
2019-04-03T11:23:06.782Z,27.10
2019-04-03T11:25:30.561Z,27.40
2019-04-03T11:30:49.557Z,28.20
2019-04-03T11:33:19.093Z,28.70
2019-04-03T11:38:26.187Z,28.90
2019-04-03T11:40:49.382Z,29.30
2019-04-03T11:45:46.580Z,29.10
2019-04-03T11:48:17.302Z,28.70
2019-04-03T11:50:46.759Z,27.80
2019-04-03T11:53:15.894Z,27.50
2019-04-03T11:55:45.215Z,27.50
2019-04-03T11:58:14.182Z,27.60
2019-04-03T12:00:50.980Z,27.70
2019-04-03T12:03:19.931Z,27.40
2019-04-03T12:08:17.485Z,27.20
2019-04-03T12:10:46.527Z,27.60
2019-04-03T12:13:15.410Z,27.40
2019-04-03T12:15:44.818Z,27.70
2019-04-03T12:20:44.866Z,27.50
2019-04-03T12:26:00.241Z,27.60
2019-04-03T12:28:28.924Z,27.60
2019-04-03T12:30:57.556Z,27.00
2019-04-03T12:33:26.535Z,26.40
2019-04-03T12:35:56.603Z,26.20
2019-04-03T12:38:25.597Z,25.30
2019-04-03T12:40:54.587Z,24.70
2019-04-03T12:43:23.178Z,24.10
2019-04-03T12:45:51.818Z,24.20
2019-04-03T12:48:20.445Z,23.90
2019-04-03T12:50:49.037Z,24.30
2019-04-03T12:53:18.136Z,24.30
2019-04-03T12:55:47.199Z,24.30
2019-04-03T12:58:15.823Z,22.00
2019-04-03T13:00:46.155Z,24.80
2019-04-03T13:03:14.840Z,24.70
2019-04-03T13:08:12.106Z,24.60
2019-04-03T13:10:45.164Z,25.10
2019-04-03T13:15:40.245Z,25.10
2019-04-03T13:20:41.156Z,25.80
2019-04-03T13:23:15.743Z,25.60
2019-04-03T13:25:48.961Z,25.50
2019-04-03T13:28:22.687Z,25.40
2019-04-03T13:30:54.409Z,25.60
2019-04-03T13:33:25.931Z,25.50
2019-04-03T13:35:57.770Z,25.30
2019-04-03T13:38:30.439Z,25.40
2019-04-03T13:40:59.394Z,25.40
2019-04-03T13:43:29.793Z,25.80
2019-04-03T13:45:59.023Z,26.40
2019-04-03T13:48:27.648Z,24.80
2019-04-03T13:50:56.282Z,25.00
2019-04-03T13:53:25.657Z,25.50
2019-04-03T13:55:54.334Z,25.60
2019-04-03T13:58:23.325Z,25.70
2019-04-03T14:00:59.509Z,25.10
2019-04-03T14:03:22.398Z,23.80
2019-04-03T14:05:51.179Z,22.90
2019-04-03T14:08:19.769Z,22.80
2019-04-03T14:10:48.478Z,23.10
2019-04-03T14:13:17.031Z,20.00
2019-04-03T14:15:45.763Z,18.40
2019-04-03T14:18:14.311Z,15.80
2019-04-03T14:20:42.924Z,15.40
2019-04-03T14:23:11.605Z,10.80
2019-04-03T14:25:40.250Z,9.80
2019-04-03T14:28:09.097Z,9.10
2019-04-03T14:30:37.759Z,10.80
2019-04-03T14:33:06.644Z,9.50
2019-04-03T14:35:49.887Z,9.70
2019-04-03T14:38:05.468Z,10.50
2019-04-03T14:40:34.544Z,11.00
2019-04-03T14:43:03.149Z,11.40
2019-04-03T14:45:32.241Z,12.60
2019-04-03T14:48:00.843Z,13.20
2019-04-03T14:50:29.443Z,13.70
2019-04-03T14:52:58.195Z,15.30
2019-04-03T14:55:28.746Z,14.20
2019-04-03T14:57:57.598Z,13.00
2019-04-03T15:00:30.293Z,13.10
2019-04-03T15:05:26.812Z,14.30
2019-04-03T15:07:55.360Z,14.50
2019-04-03T15:20:18.885Z,15.30
2019-04-03T15:22:47.832Z,15.40
2019-04-03T15:25:18.455Z,15.80
2019-04-03T15:27:47.153Z,15.70
2019-04-03T15:30:16.993Z,15.80
2019-04-03T15:32:45.698Z,15.50
2019-04-03T15:35:14.855Z,15.70
2019-04-03T15:37:43.431Z,15.60
2019-04-03T15:42:41.399Z,15.90
2019-04-03T15:45:11.338Z,15.70
2019-04-03T15:47:45.132Z,15.90
2019-04-03T15:50:10.770Z,16.10
2019-04-03T15:52:39.385Z,16.20
2019-04-03T15:55:08.939Z,16.30
2019-04-03T15:57:39.599Z,16.30
2019-04-03T16:00:11.325Z,16.20
2019-04-03T16:02:40.413Z,16.20
2019-04-03T16:05:09.728Z,16.40
2019-04-03T16:07:41.521Z,16.70
2019-04-03T16:10:09.371Z,16.00
2019-04-03T16:12:41.599Z,15.90
2019-04-03T16:15:09.828Z,14.80
2019-04-03T16:17:42.462Z,14.60
2019-04-03T16:20:15.977Z,14.70
2019-04-03T16:22:49.251Z,15.60
2019-04-03T16:27:47.671Z,16.20
2019-04-03T16:30:18.601Z,17.10
2019-04-03T16:32:46.835Z,17.60
2019-04-03T16:35:15.711Z,18.30
2019-04-03T16:37:45.239Z,18.10
2019-04-03T16:40:14.888Z,19.10
2019-04-03T16:42:43.661Z,19.60
2019-04-03T16:45:12.682Z,20.10
2019-04-03T16:50:13.112Z,20.30
2019-04-03T16:55:10.631Z,21.50
2019-04-03T16:57:39.580Z,22.20
2019-04-03T17:00:10.408Z,22.50
2019-04-03T17:02:39.376Z,22.90
2019-04-03T17:05:10.734Z,23.20
2019-04-03T17:07:39.310Z,23.10
2019-04-03T17:12:38.914Z,23.60
2019-04-03T17:15:09.533Z,23.60
2019-04-03T17:17:39.172Z,23.60
2019-04-03T17:22:38.996Z,24.40
2019-04-03T17:25:07.982Z,24.30
2019-04-03T17:35:07.806Z,25.20
2019-04-03T17:42:37.138Z,25.60
2019-04-03T17:45:08.091Z,25.30
2019-04-03T17:47:37.056Z,25.30
2019-04-03T17:50:07.597Z,25.40
2019-04-03T17:57:38.542Z,26.00
2019-04-03T18:02:38.169Z,25.90
2019-04-03T18:05:08.330Z,26.00
2019-04-03T18:07:37.310Z,26.20
2019-04-03T18:10:12.056Z,26.20
2019-04-03T18:12:38.608Z,26.10
2019-04-03T18:15:09.390Z,26.00
2019-04-03T18:17:38.431Z,26.30
2019-04-03T18:20:12.501Z,26.60
2019-04-03T18:22:40.231Z,26.40
2019-04-03T18:25:09.467Z,26.30
2019-04-03T18:27:38.405Z,26.50
2019-04-03T18:32:38.418Z,26.40
2019-04-03T18:35:07.858Z,26.50
2019-04-03T18:37:36.721Z,26.70
2019-04-03T18:40:07.152Z,26.50
2019-04-03T18:42:36.005Z,26.50
2019-04-03T18:47:41.257Z,27.20
2019-04-03T18:50:09.853Z,27.10
2019-04-03T18:55:07.494Z,26.70
2019-04-03T18:57:37.543Z,27.00
2019-04-03T19:02:38.363Z,27.20
2019-04-03T19:05:10.074Z,27.50
2019-04-03T19:07:39.186Z,27.10
2019-04-03T19:10:08.453Z,27.70
2019-04-03T19:12:37.391Z,27.60
2019-04-03T19:15:07.628Z,28.20
2019-04-03T19:17:36.586Z,28.40
2019-04-03T19:20:10.554Z,29.00
2019-04-03T19:22:37.564Z,29.50
2019-04-03T19:25:07.656Z,29.50
2019-04-03T19:27:36.643Z,30.00
2019-04-03T19:30:07.090Z,30.40
2019-04-03T19:32:36.695Z,30.00
2019-04-03T19:35:09.562Z,30.60
2019-04-03T19:40:09.899Z,31.10
2019-04-03T19:42:38.811Z,31.20
2019-04-03T19:45:08.943Z,31.50
2019-04-03T19:55:07.667Z,33.50
2019-04-03T19:57:36.557Z,32.90
2019-04-03T20:00:06.861Z,33.10
2019-04-03T20:02:38.082Z,32.60
2019-04-03T20:05:07.237Z,32.50
2019-04-03T20:07:36.179Z,33.50
2019-04-03T20:12:35.810Z,34.20
2019-04-03T20:15:07.717Z,34.60
2019-04-03T20:17:36.659Z,35.10
2019-04-03T20:20:07.670Z,34.10
2019-04-03T20:22:37.880Z,34.60
2019-04-03T20:27:36.084Z,34.70
2019-04-03T20:32:39.957Z,36.00
2019-04-03T20:35:08.060Z,35.50
2019-04-03T20:40:06.648Z,36.10
2019-04-03T20:42:35.603Z,35.50
2019-04-03T20:45:06.821Z,35.50
2019-04-03T20:52:35.728Z,35.50
2019-04-03T21:00:04.603Z,35.40
2019-04-03T21:05:02.111Z,35.10
2019-04-03T21:07:31.028Z,34.70
2019-04-03T21:10:00.973Z,34.40
2019-04-03T21:12:30.481Z,34.80
2019-04-03T21:15:08.434Z,34.60
2019-04-03T21:19:58.443Z,35.20
2019-04-03T21:22:29.585Z,34.90
2019-04-03T21:27:26.429Z,35.00
2019-04-03T21:29:58.036Z,34.80
2019-04-03T21:34:56.032Z,34.90
2019-04-03T21:47:19.438Z,34.80
2019-04-03T21:49:48.763Z,34.30
2019-04-03T21:52:17.685Z,34.40
2019-04-03T21:59:43.565Z,34.40
2019-04-03T22:02:14.047Z,35.20
2019-04-03T22:04:43.225Z,35.60
2019-04-03T22:07:22.530Z,34.90
2019-04-03T22:14:48.564Z,35.80
2019-04-03T22:17:17.477Z,36.10
2019-04-03T22:19:46.445Z,35.80
2019-04-03T22:24:43.930Z,36.20
2019-04-03T22:27:12.909Z,36.50
2019-04-03T22:29:41.796Z,36.60
2019-04-03T22:34:38.986Z,36.60
2019-04-03T22:37:07.913Z,37.00
2019-04-03T22:42:07.159Z,36.60
2019-04-03T22:44:36.040Z,36.50
2019-04-03T22:47:05.028Z,36.20
2019-04-03T22:49:34.497Z,35.70
2019-04-03T22:52:03.495Z,35.00
2019-04-03T22:57:00.683Z,35.30
2019-04-03T23:06:57.233Z,35.50
2019-04-03T23:09:27.089Z,35.30
2019-04-03T23:11:55.984Z,35.40
2019-04-03T23:16:53.329Z,35.50
2019-04-03T23:19:22.221Z,35.50
2019-04-03T23:21:51.167Z,35.20
2019-04-03T23:29:17.327Z,35.90
2019-04-03T23:31:46.277Z,36.30
2019-04-03T23:34:18.736Z,36.60
2019-04-03T23:44:11.679Z,35.70
2019-04-03T23:51:37.776Z,35.70
2019-04-03T23:54:07.464Z,35.40
2019-04-03T23:59:06.359Z,35.30
